createdAt,value
2019-03-09T00:00:09.255Z,1005.10
2019-03-09T00:01:09.201Z,1005.08
2019-03-09T00:02:09.219Z,1005.05
2019-03-09T00:03:09.187Z,1005.01
2019-03-09T00:04:09.191Z,1005.05
2019-03-09T00:05:09.217Z,1005.04
2019-03-09T00:06:09.181Z,1005.00
2019-03-09T00:07:09.210Z,1005.04
2019-03-09T00:08:09.180Z,1005.00
2019-03-09T00:09:09.142Z,1005.01
2019-03-09T00:10:09.203Z,1004.93
2019-03-09T00:11:09.171Z,1004.90
2019-03-09T00:12:09.141Z,1004.91
2019-03-09T00:13:09.124Z,1004.94
2019-03-09T00:14:09.137Z,1004.91
2019-03-09T00:15:09.100Z,1004.90
2019-03-09T00:16:09.101Z,1004.90
2019-03-09T00:17:09.091Z,1004.92
2019-03-09T00:18:09.086Z,1004.93
2019-03-09T00:19:09.101Z,1004.89
2019-03-09T00:20:09.099Z,1004.92
2019-03-09T00:21:09.110Z,1004.92
2019-03-09T00:22:09.114Z,1004.90
2019-03-09T00:23:09.041Z,1004.93
2019-03-09T00:24:09.145Z,1004.89
2019-03-09T00:25:09.037Z,1004.93
2019-03-09T00:26:09.050Z,1004.98
2019-03-09T00:27:09.061Z,1004.96
2019-03-09T00:28:09.010Z,1004.96
2019-03-09T00:29:09.104Z,1005.01
2019-03-09T00:30:09.042Z,1005.06
2019-03-09T00:31:08.991Z,1005.01
2019-03-09T00:32:09.010Z,1005.01
2019-03-09T00:33:09.010Z,1005.05
2019-03-09T00:34:08.995Z,1005.07
2019-03-09T00:35:08.984Z,1005.05
2019-03-09T00:36:08.953Z,1005.07
2019-03-09T00:37:08.950Z,1005.05
2019-03-09T00:38:08.938Z,1005.07
2019-03-09T00:39:08.935Z,1005.04
2019-03-09T00:40:08.952Z,1005.03
2019-03-09T00:41:08.938Z,1005.06
2019-03-09T00:42:08.947Z,1004.98
2019-03-09T00:43:08.931Z,1005.00
2019-03-09T00:44:08.914Z,1004.98
2019-03-09T00:45:08.892Z,1004.96
2019-03-09T00:46:08.880Z,1004.96
2019-03-09T00:47:08.884Z,1004.89
2019-03-09T00:48:08.900Z,1004.90
2019-03-09T00:49:08.886Z,1004.91
2019-03-09T00:50:08.882Z,1004.84
2019-03-09T00:51:08.899Z,1004.75
2019-03-09T00:52:08.848Z,1004.76
2019-03-09T00:53:08.852Z,1004.79
2019-03-09T00:54:08.897Z,1004.82
2019-03-09T00:55:08.859Z,1004.78
2019-03-09T00:56:08.811Z,1004.79
2019-03-09T00:57:08.849Z,1004.79
2019-03-09T00:58:08.808Z,1004.83
2019-03-09T00:59:08.796Z,1004.78
2019-03-09T01:00:08.803Z,1004.78
2019-03-09T01:01:08.802Z,1004.77
2019-03-09T01:02:08.798Z,1004.73
2019-03-09T01:03:08.843Z,1004.75
2019-03-09T01:04:08.755Z,1004.71
2019-03-09T01:05:08.774Z,1004.70
2019-03-09T01:06:08.741Z,1004.67
2019-03-09T01:07:08.725Z,1004.65
2019-03-09T01:08:08.745Z,1004.64
2019-03-09T01:09:08.725Z,1004.53
2019-03-09T01:10:08.725Z,1004.57
2019-03-09T01:11:08.739Z,1004.55
2019-03-09T01:12:08.709Z,1004.48
2019-03-09T01:13:08.684Z,1004.50
2019-03-09T01:14:08.693Z,1004.46
2019-03-09T01:15:08.677Z,1004.42
2019-03-09T01:16:08.674Z,1004.44
2019-03-09T01:17:08.677Z,1004.35
2019-03-09T01:18:08.713Z,1004.40
2019-03-09T01:19:08.697Z,1004.40
2019-03-09T01:20:08.657Z,1004.38
2019-03-09T01:21:08.693Z,1004.35
2019-03-09T01:22:08.654Z,1004.26
2019-03-09T01:23:08.647Z,1004.28
2019-03-09T01:24:08.632Z,1004.22
2019-03-09T01:25:08.637Z,1004.15
2019-03-09T01:26:08.620Z,1004.16
2019-03-09T01:27:08.608Z,1004.12
2019-03-09T01:28:08.581Z,1004.05
2019-03-09T01:29:08.582Z,1004.05
2019-03-09T01:30:08.565Z,1004.06
2019-03-09T01:31:08.578Z,1004.04
2019-03-09T01:32:08.577Z,1004.05
2019-03-09T01:33:08.541Z,1004.03
2019-03-09T01:34:08.570Z,1004.05
2019-03-09T01:35:08.563Z,1003.96
2019-03-09T01:36:08.521Z,1003.96
2019-03-09T01:37:08.522Z,1004.10
2019-03-09T01:38:08.514Z,1004.03
2019-03-09T01:39:08.530Z,1004.03
2019-03-09T01:40:08.524Z,1003.99
2019-03-09T01:41:08.492Z,1004.01
2019-03-09T01:42:08.484Z,1004.00
2019-03-09T01:43:08.476Z,1003.97
2019-03-09T01:44:08.474Z,1003.99
2019-03-09T01:45:08.460Z,1003.91
2019-03-09T01:46:08.470Z,1003.89
2019-03-09T01:47:08.478Z,1003.89
2019-03-09T01:48:08.463Z,1003.87
2019-03-09T01:49:08.492Z,1003.86
2019-03-09T01:50:08.420Z,1003.89
2019-03-09T01:51:08.418Z,1003.88
2019-03-09T01:52:08.410Z,1003.90
2019-03-09T01:53:08.436Z,1003.78
2019-03-09T01:54:08.405Z,1003.81
2019-03-09T01:55:08.386Z,1003.81
2019-03-09T01:56:08.375Z,1003.82
2019-03-09T01:57:08.398Z,1003.83
2019-03-09T01:58:08.370Z,1003.80
2019-03-09T01:59:08.363Z,1003.72
2019-03-09T02:00:08.363Z,1003.71
2019-03-09T02:01:08.359Z,1003.72
2019-03-09T02:02:08.355Z,1003.63
2019-03-09T02:03:08.353Z,1003.63
2019-03-09T02:04:08.317Z,1003.57
2019-03-09T02:05:08.338Z,1003.54
2019-03-09T02:06:08.314Z,1003.51
2019-03-09T02:07:08.323Z,1003.58
2019-03-09T02:08:08.295Z,1003.53
2019-03-09T02:09:08.288Z,1003.56
2019-03-09T02:10:08.300Z,1003.58
2019-03-09T02:11:08.279Z,1003.56
2019-03-09T02:12:08.296Z,1003.58
2019-03-09T02:13:08.261Z,1003.55
2019-03-09T02:14:08.263Z,1003.50
2019-03-09T02:15:08.277Z,1003.51
2019-03-09T02:16:08.314Z,1003.48
2019-03-09T02:17:08.292Z,1003.46
2019-03-09T02:18:08.290Z,1003.46
2019-03-09T02:19:08.222Z,1003.37
2019-03-09T02:20:08.234Z,1003.42
2019-03-09T02:21:08.236Z,1003.31
2019-03-09T02:22:08.256Z,1003.37
2019-03-09T02:23:08.213Z,1003.40
2019-03-09T02:24:08.189Z,1003.40
2019-03-09T02:25:08.234Z,1003.31
2019-03-09T02:26:08.189Z,1003.28
2019-03-09T02:27:08.173Z,1003.33
2019-03-09T02:28:08.185Z,1003.29
2019-03-09T02:29:08.214Z,1003.36
2019-03-09T02:30:08.160Z,1003.39
2019-03-09T02:31:08.175Z,1003.36
2019-03-09T02:32:08.156Z,1003.28
2019-03-09T02:33:08.150Z,1003.27
2019-03-09T02:34:08.182Z,1003.27
2019-03-09T02:35:08.108Z,1003.19
2019-03-09T02:36:08.168Z,1003.25
2019-03-09T02:37:08.122Z,1003.18
2019-03-09T02:38:08.110Z,1003.19
2019-03-09T02:39:08.149Z,1003.15
2019-03-09T02:40:08.095Z,1003.09
2019-03-09T02:41:08.086Z,1003.21
2019-03-09T02:42:08.129Z,1003.06
2019-03-09T02:43:08.135Z,1003.07
2019-03-09T02:44:08.140Z,1002.95
2019-03-09T02:45:08.080Z,1003.06
2019-03-09T02:46:08.087Z,1003.05
2019-03-09T02:47:08.127Z,1003.16
2019-03-09T02:48:08.004Z,1002.99
2019-03-09T02:49:08.065Z,1002.93
2019-03-09T02:50:08.083Z,1003.03
2019-03-09T02:51:08.050Z,1003.08
2019-03-09T02:52:07.976Z,1003.05
2019-03-09T02:53:07.998Z,1002.92
2019-03-09T02:54:07.985Z,1002.87
2019-03-09T02:55:08.018Z,1003.02
2019-03-09T02:56:08.001Z,1002.95
2019-03-09T03:13:47.905Z,1002.82
2019-03-09T03:14:47.756Z,1002.77
2019-03-09T03:15:47.777Z,1002.78
2019-03-09T03:16:47.698Z,1002.77
2019-03-09T03:17:47.765Z,1002.68
2019-03-09T03:18:47.662Z,1002.80
2019-03-09T03:19:47.714Z,1002.76
2019-03-09T03:20:47.650Z,1002.68
2019-03-09T03:21:47.634Z,1002.57
2019-03-09T03:22:47.682Z,1002.60
2019-03-09T03:23:47.632Z,1002.65
2019-03-09T03:24:47.596Z,1002.60
2019-03-09T03:25:47.670Z,1002.44
2019-03-09T03:26:47.601Z,1002.46
2019-03-09T03:27:47.565Z,1002.49
2019-03-09T03:28:47.552Z,1002.24
2019-03-09T03:29:47.550Z,1002.28
2019-03-09T03:30:47.553Z,1002.48
2019-03-09T03:31:47.540Z,1002.44
2019-03-09T03:32:47.556Z,1002.51
2019-03-09T03:33:47.522Z,1002.53
2019-03-09T03:34:47.536Z,1002.54
2019-03-09T03:35:47.544Z,1002.50
2019-03-09T03:36:47.540Z,1002.43
2019-03-09T03:37:47.512Z,1002.46
2019-03-09T03:38:47.484Z,1002.49
2019-03-09T03:39:47.473Z,1002.46
2019-03-09T03:40:47.481Z,1002.42
2019-03-09T03:41:47.458Z,1002.59
2019-03-09T03:42:47.488Z,1002.48
2019-03-09T03:43:47.451Z,1002.57
2019-03-09T03:44:47.477Z,1002.58
2019-03-09T03:45:47.435Z,1002.68
2019-03-09T03:46:47.446Z,1002.59
2019-03-09T03:47:47.414Z,1002.69
2019-03-09T03:48:47.405Z,1002.71
2019-03-09T03:49:47.416Z,1002.67
2019-03-09T03:50:47.385Z,1002.61
2019-03-09T03:51:47.383Z,1002.55
2019-03-09T03:52:47.386Z,1002.72
2019-03-09T03:53:47.383Z,1002.67
2019-03-09T03:54:47.396Z,1002.63
2019-03-09T03:55:47.359Z,1002.80
2019-03-09T03:56:47.737Z,1002.81
2019-03-09T03:57:47.339Z,1002.79
2019-03-09T03:58:47.354Z,1002.88
2019-03-09T03:59:47.354Z,1002.73
2019-03-09T04:00:47.366Z,1002.71
2019-03-09T04:01:47.348Z,1002.62
2019-03-09T04:02:47.321Z,1002.82
2019-03-09T04:03:47.316Z,1002.80
2019-03-09T04:04:47.318Z,1002.76
2019-03-09T04:05:47.278Z,1002.82
2019-03-09T04:06:47.304Z,1002.83
2019-03-09T04:07:47.320Z,1002.99
2019-03-09T04:08:47.282Z,1002.94
2019-03-09T04:09:47.289Z,1002.90
2019-03-09T04:10:47.412Z,1002.87
2019-03-09T04:11:47.241Z,1002.85
2019-03-09T04:12:47.267Z,1002.88
2019-03-09T04:13:47.222Z,1002.95
2019-03-09T04:14:47.248Z,1002.96
2019-03-09T04:15:47.271Z,1002.99
2019-03-09T04:16:47.242Z,1003.06
2019-03-09T04:17:47.200Z,1003.06
2019-03-09T04:18:47.223Z,1003.11
2019-03-09T04:19:47.203Z,1003.05
2019-03-09T04:20:47.176Z,1003.04
2019-03-09T04:21:47.166Z,1003.02
2019-03-09T04:22:47.254Z,1003.09
2019-03-09T04:23:47.179Z,1003.16
2019-03-09T04:24:47.137Z,1003.20
2019-03-09T04:25:47.142Z,1003.20
2019-03-09T04:26:47.145Z,1003.20
2019-03-09T04:27:47.126Z,1003.23
2019-03-09T04:28:47.112Z,1003.25
2019-03-09T04:29:47.105Z,1003.19
2019-03-09T04:30:47.121Z,1003.31
2019-03-09T04:31:47.082Z,1003.31
2019-03-09T04:32:47.076Z,1003.32
2019-03-09T04:33:47.069Z,1003.35
2019-03-09T04:34:47.065Z,1003.26
2019-03-09T04:35:47.052Z,1003.32
2019-03-09T04:36:47.064Z,1003.25
2019-03-09T04:37:47.034Z,1003.27
2019-03-09T04:38:47.069Z,1003.31
2019-03-09T04:39:47.036Z,1003.16
2019-03-09T04:40:47.015Z,1003.30
2019-03-09T04:41:47.019Z,1003.20
2019-03-09T04:42:47.024Z,1003.31
2019-03-09T04:43:47.017Z,1003.29
2019-03-09T04:44:47.023Z,1003.31
2019-03-09T04:45:47.013Z,1003.41
2019-03-09T04:46:47.016Z,1003.35
2019-03-09T04:47:46.968Z,1003.45
2019-03-09T04:48:46.954Z,1003.46
2019-03-09T04:49:46.942Z,1003.51
2019-03-09T04:50:46.953Z,1003.43
2019-03-09T04:51:46.967Z,1003.52
2019-03-09T04:52:46.937Z,1003.50
2019-03-09T04:53:46.954Z,1003.51
2019-03-09T04:54:46.909Z,1003.52
2019-03-09T04:55:46.901Z,1003.49
2019-03-09T04:56:46.909Z,1003.54
2019-03-09T04:57:46.910Z,1003.54
2019-03-09T04:58:46.940Z,1003.50
2019-03-09T04:59:46.870Z,1003.54
2019-03-09T05:00:46.877Z,1003.55
2019-03-09T05:01:46.879Z,1003.60
2019-03-09T05:02:46.843Z,1003.63
2019-03-09T05:03:46.841Z,1003.67
2019-03-09T05:04:46.883Z,1003.65
2019-03-09T05:05:46.892Z,1003.68
2019-03-09T05:06:46.833Z,1003.64
2019-03-09T05:07:46.802Z,1003.66
2019-03-09T05:08:46.794Z,1003.70
2019-03-09T05:09:46.799Z,1003.67
2019-03-09T05:10:46.787Z,1003.67
2019-03-09T05:11:46.796Z,1003.63
2019-03-09T05:12:46.779Z,1003.66
2019-03-09T05:13:46.788Z,1003.62
2019-03-09T05:14:46.787Z,1003.71
2019-03-09T05:15:46.741Z,1003.70
2019-03-09T05:16:46.783Z,1003.75
2019-03-09T05:17:46.743Z,1003.65
2019-03-09T05:18:46.743Z,1003.66
2019-03-09T05:19:46.743Z,1003.74
2019-03-09T05:20:46.747Z,1003.63
2019-03-09T05:21:46.689Z,1003.72
2019-03-09T05:22:46.793Z,1003.81
2019-03-09T05:23:46.741Z,1003.78
2019-03-09T05:24:46.679Z,1003.75
2019-03-09T05:25:46.675Z,1003.84
2019-03-09T05:26:46.727Z,1003.84
2019-03-09T05:27:46.686Z,1003.80
2019-03-09T05:28:46.636Z,1003.78
2019-03-09T05:29:46.680Z,1003.79
2019-03-09T05:30:46.645Z,1003.79
2019-03-09T05:31:46.695Z,1003.86
2019-03-09T05:32:46.613Z,1003.90
2019-03-09T05:33:46.605Z,1003.84
2019-03-09T05:34:46.630Z,1003.77
2019-03-09T05:35:46.621Z,1003.86
2019-03-09T05:36:46.625Z,1003.91
2019-03-09T05:37:46.571Z,1003.94
2019-03-09T05:38:46.570Z,1003.95
2019-03-09T05:39:46.546Z,1003.94
2019-03-09T05:40:46.558Z,1003.94
2019-03-09T05:41:46.551Z,1003.96
2019-03-09T05:42:46.524Z,1003.96
2019-03-09T05:43:46.519Z,1003.95
2019-03-09T05:44:46.526Z,1003.91
2019-03-09T05:45:46.502Z,1003.98
2019-03-09T05:46:46.512Z,1003.94
2019-03-09T05:47:46.488Z,1004.01
2019-03-09T05:48:46.513Z,1003.91
2019-03-09T05:49:46.518Z,1003.84
2019-03-09T05:50:46.507Z,1003.96
2019-03-09T05:51:46.451Z,1003.96
2019-03-09T05:52:46.454Z,1004.01
2019-03-09T05:53:46.454Z,1003.87
2019-03-09T05:54:46.433Z,1003.94
2019-03-09T05:55:46.464Z,1003.98
2019-03-09T05:56:46.414Z,1003.93
2019-03-09T05:57:46.402Z,1003.94
2019-03-09T05:58:46.418Z,1003.94
2019-03-09T05:59:46.385Z,1003.94
2019-03-09T06:00:46.384Z,1003.90
2019-03-09T06:01:46.383Z,1003.74
2019-03-09T06:02:46.382Z,1003.76
2019-03-09T06:03:46.356Z,1003.76
2019-03-09T06:04:46.379Z,1003.88
2019-03-09T06:05:46.362Z,1003.84
2019-03-09T06:06:46.327Z,1003.80
2019-03-09T06:07:46.324Z,1003.85
2019-03-09T06:08:46.342Z,1003.84
2019-03-09T06:09:46.340Z,1003.83
2019-03-09T06:10:46.303Z,1003.84
2019-03-09T06:11:46.290Z,1003.90
2019-03-09T06:12:46.303Z,1003.78
2019-03-09T06:13:46.287Z,1003.96
2019-03-09T06:14:46.275Z,1003.90
2019-03-09T06:15:46.300Z,1003.97
2019-03-09T06:16:46.275Z,1003.95
2019-03-09T06:17:46.278Z,1003.89
2019-03-09T06:18:46.250Z,1003.98
2019-03-09T06:19:46.225Z,1003.96
2019-03-09T06:20:46.245Z,1004.00
2019-03-09T06:21:46.225Z,1004.03
2019-03-09T06:22:46.219Z,1004.03
2019-03-09T06:23:46.189Z,1004.02
2019-03-09T06:24:46.192Z,1004.05
2019-03-09T06:25:46.201Z,1004.16
2019-03-09T06:26:46.165Z,1004.16
2019-03-09T06:27:46.176Z,1004.21
2019-03-09T06:28:46.173Z,1004.28
2019-03-09T06:29:46.185Z,1004.31
2019-03-09T06:30:46.189Z,1004.15
2019-03-09T06:31:46.202Z,1004.27
2019-03-09T06:32:46.142Z,1004.36
2019-03-09T06:33:46.134Z,1004.27
2019-03-09T06:34:46.099Z,1004.34
2019-03-09T06:35:46.103Z,1004.32
2019-03-09T06:36:46.122Z,1004.35
2019-03-09T06:37:46.066Z,1004.33
2019-03-09T06:38:46.113Z,1004.34
2019-03-09T06:39:46.117Z,1004.42
2019-03-09T06:40:46.067Z,1004.44
2019-03-09T06:41:46.078Z,1004.61
2019-03-09T06:42:46.080Z,1004.40
2019-03-09T06:43:46.014Z,1004.50
2019-03-09T06:44:46.019Z,1004.42
2019-03-09T06:45:46.006Z,1004.50
2019-03-09T06:46:45.991Z,1004.55
2019-03-09T06:47:46.023Z,1004.50
2019-03-09T06:48:46.010Z,1004.47
2019-03-09T06:49:46.008Z,1004.56
2019-03-09T06:50:45.963Z,1004.53
2019-03-09T06:51:45.965Z,1004.54
2019-03-09T06:52:45.990Z,1004.48
2019-03-09T06:53:45.933Z,1004.60
2019-03-09T06:54:45.974Z,1004.55
2019-03-09T06:55:45.941Z,1004.48
2019-03-09T06:56:45.937Z,1004.57
2019-03-09T06:57:45.937Z,1004.48
2019-03-09T06:58:45.987Z,1004.56
2019-03-09T06:59:45.914Z,1004.56
2019-03-09T07:00:46.002Z,1004.65
2019-03-09T07:01:45.891Z,1004.70
2019-03-09T07:02:45.986Z,1004.63
2019-03-09T07:03:45.853Z,1004.71
2019-03-09T07:04:45.948Z,1004.63
2019-03-09T07:05:45.838Z,1004.67
2019-03-09T07:06:45.983Z,1004.69
2019-03-09T07:07:45.841Z,1004.68
2019-03-09T07:08:45.864Z,1004.70
2019-03-09T07:09:45.817Z,1004.72
2019-03-09T07:10:45.800Z,1004.70
2019-03-09T07:11:45.779Z,1004.77
2019-03-09T07:12:45.799Z,1004.81
2019-03-09T07:13:52.936Z,1004.68
2019-03-09T07:14:45.797Z,1004.72
2019-03-09T07:15:45.779Z,1004.82
2019-03-09T07:16:45.757Z,1004.76
2019-03-09T07:17:45.734Z,1004.82
2019-03-09T07:18:45.725Z,1004.80
2019-03-09T07:19:45.715Z,1004.79
2019-03-09T07:20:45.723Z,1004.79
2019-03-09T07:21:45.733Z,1004.82
2019-03-09T07:22:45.718Z,1004.77
2019-03-09T07:23:45.707Z,1004.75
2019-03-09T07:24:45.672Z,1004.73
2019-03-09T07:25:45.686Z,1004.72
2019-03-09T07:26:45.658Z,1004.64
2019-03-09T07:27:45.659Z,1004.73
2019-03-09T07:28:45.671Z,1004.62
2019-03-09T07:29:45.633Z,1004.60
2019-03-09T07:30:45.656Z,1004.52
2019-03-09T07:31:45.655Z,1004.68
2019-03-09T07:32:45.679Z,1004.68
2019-03-09T07:33:45.612Z,1004.61
2019-03-09T07:34:45.594Z,1004.56
2019-03-09T07:35:45.624Z,1004.52
2019-03-09T07:36:45.602Z,1004.53
2019-03-09T07:37:45.609Z,1004.51
2019-03-09T07:38:45.565Z,1004.51
2019-03-09T07:39:45.571Z,1004.51
2019-03-09T07:40:45.553Z,1004.48
2019-03-09T07:41:45.547Z,1004.56
2019-03-09T07:42:45.551Z,1004.51
2019-03-09T07:43:45.568Z,1004.43
2019-03-09T07:44:45.561Z,1004.48
2019-03-09T07:45:45.538Z,1004.47
2019-03-09T07:46:45.528Z,1004.48
2019-03-09T07:47:45.501Z,1004.46
2019-03-09T07:48:45.483Z,1004.43
2019-03-09T07:49:45.548Z,1004.28
2019-03-09T07:50:45.479Z,1004.21
2019-03-09T07:51:45.501Z,1004.33
2019-03-09T07:52:45.454Z,1004.43
2019-03-09T07:53:45.442Z,1004.35
2019-03-09T07:54:45.451Z,1004.32
2019-03-09T07:55:45.433Z,1004.29
2019-03-09T07:56:45.429Z,1004.19
2019-03-09T07:57:45.420Z,1004.29
2019-03-09T07:58:45.433Z,1004.27
2019-03-09T07:59:45.430Z,1004.22
2019-03-09T08:00:45.420Z,1004.36
2019-03-09T08:01:45.444Z,1004.22
2019-03-09T08:02:45.376Z,1004.40
2019-03-09T08:03:45.386Z,1004.30
2019-03-09T08:04:45.396Z,1004.39
2019-03-09T08:05:45.379Z,1004.41
2019-03-09T08:06:45.385Z,1004.35
2019-03-09T08:07:45.380Z,1004.26
2019-03-09T08:08:45.338Z,1004.29
2019-03-09T08:09:45.360Z,1004.42
2019-03-09T08:10:45.321Z,1004.42
2019-03-09T08:11:45.345Z,1004.44
2019-03-09T08:12:45.356Z,1004.34
2019-03-09T08:13:45.318Z,1004.45
2019-03-09T08:14:45.295Z,1004.47
2019-03-09T08:15:45.293Z,1004.49
2019-03-09T08:16:45.279Z,1004.49
2019-03-09T08:17:45.279Z,1004.50
2019-03-09T08:18:45.401Z,1004.33
2019-03-09T08:19:45.284Z,1004.50
2019-03-09T08:20:45.267Z,1004.51
2019-03-09T08:21:45.270Z,1004.62
2019-03-09T08:22:45.237Z,1004.65
2019-03-09T08:23:45.242Z,1004.58
2019-03-09T08:24:45.219Z,1004.67
2019-03-09T08:25:45.450Z,1004.68
2019-03-09T08:26:45.217Z,1004.72
2019-03-09T08:27:45.235Z,1004.42
2019-03-09T08:28:45.228Z,1004.69
2019-03-09T08:29:54.034Z,1004.74
2019-03-09T08:31:49.690Z,1004.86
2019-03-09T08:32:49.673Z,1004.85
2019-03-09T08:33:49.653Z,1004.85
2019-03-09T08:34:49.678Z,1004.78
2019-03-09T08:35:49.665Z,1004.85
2019-03-09T08:36:49.628Z,1004.77
2019-03-09T08:37:49.636Z,1004.89
2019-03-09T08:38:49.638Z,1005.00
2019-03-09T08:39:49.604Z,1004.84
2019-03-09T08:40:49.607Z,1004.74
2019-03-09T08:41:49.648Z,1004.82
2019-03-09T08:42:49.603Z,1004.72
2019-03-09T08:43:49.618Z,1004.88
2019-03-09T08:44:49.575Z,1004.88
2019-03-09T08:45:49.655Z,1004.93
2019-03-09T08:46:49.622Z,1004.79
2019-03-09T08:47:52.502Z,1004.95
2019-03-09T08:48:49.552Z,1004.97
2019-03-09T08:49:49.556Z,1004.86
2019-03-09T08:50:49.545Z,1004.96
2019-03-09T08:53:31.249Z,1004.94
2019-03-09T08:54:37.730Z,1004.92
2019-03-09T08:56:34.652Z,1004.94
2019-03-09T08:57:43.323Z,1004.93
2019-03-09T08:59:48.150Z,1004.87
2019-03-09T09:00:47.979Z,1004.69
2019-03-09T09:02:43.552Z,1004.70
2019-03-09T09:03:43.528Z,1004.66
2019-03-09T09:04:43.524Z,1004.72
2019-03-09T09:05:43.579Z,1004.73
2019-03-09T09:06:43.533Z,1004.67
2019-03-09T09:07:43.512Z,1004.63
2019-03-09T09:08:43.504Z,1004.63
2019-03-09T09:09:43.487Z,1004.69
2019-03-09T09:10:43.505Z,1004.73
2019-03-09T09:11:43.468Z,1004.64
2019-03-09T09:12:45.435Z,1004.64
2019-03-09T09:13:43.474Z,1004.84
2019-03-09T09:14:43.472Z,1004.73
2019-03-09T09:15:43.504Z,1004.78
2019-03-09T09:16:43.477Z,1004.48
2019-03-09T09:17:43.459Z,1004.99
2019-03-09T09:18:43.470Z,1004.96
2019-03-09T09:19:43.447Z,1004.97
2019-03-09T09:20:43.419Z,1005.03
2019-03-09T09:21:43.416Z,1005.00
2019-03-09T09:22:43.407Z,1005.00
2019-03-09T09:23:43.425Z,1005.04
2019-03-09T09:24:43.402Z,1005.10
2019-03-09T09:25:43.381Z,1005.14
2019-03-09T09:26:52.096Z,1005.21
2019-03-09T09:28:47.870Z,1005.08
2019-03-09T09:29:47.865Z,1004.99
2019-03-09T09:30:47.878Z,1005.04
2019-03-09T09:31:47.944Z,1004.97
2019-03-09T09:32:47.858Z,1004.96
2019-03-09T09:33:47.836Z,1004.93
2019-03-09T09:34:47.814Z,1004.97
2019-03-09T09:35:47.823Z,1005.03
2019-03-09T09:36:47.820Z,1004.92
2019-03-09T09:37:47.786Z,1004.83
2019-03-09T09:38:47.791Z,1005.07
2019-03-09T09:39:47.782Z,1005.16
2019-03-09T09:40:47.776Z,1005.07
2019-03-09T09:41:47.779Z,1005.19
2019-03-09T09:42:47.765Z,1005.24
2019-03-09T09:43:47.762Z,1005.23
2019-03-09T09:44:47.767Z,1005.20
2019-03-09T09:45:47.749Z,1005.40
2019-03-09T09:46:47.743Z,1005.36
2019-03-09T09:47:47.749Z,1005.36
2019-03-09T09:48:47.725Z,1005.39
2019-03-09T09:49:47.727Z,1005.38
2019-03-09T09:50:47.726Z,1005.30
2019-03-09T09:51:47.732Z,1005.23
2019-03-09T09:52:47.718Z,1005.27
2019-03-09T09:53:47.712Z,1005.23
2019-03-09T09:54:47.693Z,1005.21
2019-03-09T09:55:47.706Z,1005.29
2019-03-09T09:56:47.686Z,1005.32
2019-03-09T09:57:47.749Z,1005.37
2019-03-09T09:58:47.683Z,1005.33
2019-03-09T09:59:47.681Z,1005.26
2019-03-09T10:00:47.642Z,1005.32
2019-03-09T10:01:47.648Z,1005.43
2019-03-09T10:02:47.634Z,1005.36
2019-03-09T10:03:47.661Z,1005.36
2019-03-09T10:04:47.619Z,1005.38
2019-03-09T10:05:47.613Z,1005.41
2019-03-09T10:06:47.614Z,1005.32
2019-03-09T10:07:47.611Z,1005.38
2019-03-09T10:08:47.614Z,1005.42
2019-03-09T10:09:47.616Z,1005.38
2019-03-09T10:10:47.598Z,1005.34
2019-03-09T10:11:47.583Z,1005.25
2019-03-09T10:12:47.577Z,1005.25
2019-03-09T10:13:47.578Z,1005.18
2019-03-09T10:14:47.566Z,1005.11
2019-03-09T10:15:47.580Z,1005.24
2019-03-09T10:16:47.566Z,1005.23
2019-03-09T10:17:47.538Z,1005.23
2019-03-09T10:18:47.537Z,1005.29
2019-03-09T10:19:47.562Z,1005.20
2019-03-09T10:20:47.562Z,1005.20
2019-03-09T10:21:47.526Z,1005.19
2019-03-09T10:22:47.537Z,1005.27
2019-03-09T10:23:47.558Z,1005.37
2019-03-09T10:24:47.532Z,1005.40
2019-03-09T10:25:47.533Z,1005.42
2019-03-09T10:26:47.494Z,1005.42
2019-03-09T10:27:47.528Z,1005.39
2019-03-09T10:28:47.496Z,1005.44
2019-03-09T10:29:47.472Z,1005.48
2019-03-09T10:30:47.503Z,1005.32
2019-03-09T10:31:47.469Z,1005.23
2019-03-09T10:32:47.494Z,1005.38
2019-03-09T10:33:47.486Z,1005.25
2019-03-09T10:34:47.513Z,1005.33
2019-03-09T10:35:47.435Z,1005.35
2019-03-09T10:36:47.431Z,1005.25
2019-03-09T10:37:47.440Z,1005.26
2019-03-09T10:38:47.478Z,1005.31
2019-03-09T10:39:47.438Z,1005.22
2019-03-09T10:40:47.512Z,1005.23
2019-03-09T10:41:47.439Z,1005.23
2019-03-09T10:42:47.395Z,1005.29
2019-03-09T10:43:47.447Z,1005.28
2019-03-09T10:44:49.696Z,1005.40
2019-03-09T10:45:47.383Z,1005.34
2019-03-09T10:46:47.480Z,1005.37
2019-03-09T10:47:47.405Z,1005.43
2019-03-09T10:48:47.614Z,1005.35
2019-03-09T10:49:47.357Z,1005.49
2019-03-09T10:50:47.610Z,1005.52
2019-03-09T10:51:47.337Z,1005.44
2019-03-09T10:52:47.450Z,1005.57
2019-03-09T10:53:47.326Z,1005.46
2019-03-09T10:54:47.335Z,1005.45
2019-03-09T10:55:47.327Z,1005.44
2019-03-09T10:56:47.345Z,1005.47
2019-03-09T10:57:47.350Z,1005.42
2019-03-09T10:58:47.295Z,1005.43
2019-03-09T10:59:47.283Z,1005.47
2019-03-09T11:00:47.284Z,1005.48
2019-03-09T11:01:47.283Z,1005.43
2019-03-09T11:02:47.279Z,1005.41
2019-03-09T11:03:47.425Z,1005.41
2019-03-09T11:04:47.313Z,1005.55
2019-03-09T11:05:47.258Z,1005.51
2019-03-09T11:06:47.316Z,1005.54
2019-03-09T11:07:47.242Z,1005.59
2019-03-09T11:08:47.255Z,1005.57
2019-03-09T11:09:47.243Z,1005.53
2019-03-09T11:10:47.240Z,1005.54
2019-03-09T11:11:47.263Z,1005.55
2019-03-09T11:12:47.235Z,1005.42
2019-03-09T11:13:51.793Z,1005.55
2019-03-09T11:14:47.263Z,1005.45
2019-03-09T11:15:47.197Z,1005.36
2019-03-09T11:16:47.217Z,1005.30
2019-03-09T11:17:47.184Z,1005.32
2019-03-09T11:18:47.223Z,1005.30
2019-03-09T11:19:47.252Z,1005.20
2019-03-09T11:20:47.206Z,1005.16
2019-03-09T11:21:47.190Z,1005.28
2019-03-09T11:22:47.166Z,1005.27
2019-03-09T11:23:47.227Z,1005.24
2019-03-09T11:24:47.146Z,1005.36
2019-03-09T11:25:47.341Z,1005.37
2019-03-09T11:26:47.139Z,1005.38
2019-03-09T11:27:47.142Z,1005.46
2019-03-09T11:28:47.171Z,1005.47
2019-03-09T11:29:47.110Z,1005.47
2019-03-09T11:30:47.128Z,1005.49
2019-03-09T11:31:47.105Z,1005.51
2019-03-09T11:32:47.126Z,1005.48
2019-03-09T11:33:47.094Z,1005.53
2019-03-09T11:34:47.137Z,1005.52
2019-03-09T11:35:47.157Z,1005.56
2019-03-09T11:36:47.084Z,1005.65
2019-03-09T11:37:47.089Z,1005.61
2019-03-09T11:38:47.101Z,1005.55
2019-03-09T11:39:47.054Z,1005.64
2019-03-09T11:40:57.047Z,1005.63
2019-03-09T11:41:47.050Z,1005.62
2019-03-09T11:42:47.174Z,1005.65
2019-03-09T11:43:47.058Z,1005.61
2019-03-09T11:44:47.057Z,1005.61
2019-03-09T11:45:47.052Z,1005.65
2019-03-09T11:46:47.016Z,1005.64
2019-03-09T11:47:47.008Z,1005.63
2019-03-09T11:48:47.024Z,1005.64
2019-03-09T11:49:47.052Z,1005.59
2019-03-09T11:50:47.003Z,1005.60
2019-03-09T11:51:47.077Z,1005.57
2019-03-09T11:52:47.014Z,1005.54
2019-03-09T11:53:47.000Z,1005.52
2019-03-09T11:54:46.974Z,1005.60
2019-03-09T11:55:46.977Z,1005.59
2019-03-09T11:56:46.964Z,1005.59
2019-03-09T11:57:46.969Z,1005.64
2019-03-09T11:58:46.950Z,1005.62
2019-03-09T11:59:46.983Z,1005.63
2019-03-09T12:00:46.999Z,1005.64
2019-03-09T12:01:46.979Z,1005.67
2019-03-09T12:02:46.927Z,1005.67
2019-03-09T12:03:47.415Z,1005.64
2019-03-09T12:04:47.384Z,1005.67
2019-03-09T12:05:46.906Z,1005.59
2019-03-09T12:06:46.973Z,1005.58
2019-03-09T12:07:46.895Z,1005.53
2019-03-09T12:08:46.896Z,1005.50
2019-03-09T12:11:17.036Z,1005.53
2019-03-09T12:12:08.229Z,1005.49
2019-03-09T12:13:08.211Z,1005.53
2019-03-09T12:14:08.162Z,1005.52
2019-03-09T12:15:16.862Z,1005.51
2019-03-09T12:17:13.003Z,1005.43
2019-03-09T12:18:12.613Z,1005.45
2019-03-09T12:19:12.616Z,1005.45
2019-03-09T12:20:12.633Z,1005.36
2019-03-09T12:21:12.616Z,1005.34
2019-03-09T12:22:12.578Z,1005.31
2019-03-09T12:23:12.627Z,1005.32
2019-03-09T12:24:17.508Z,1005.28
2019-03-09T12:25:12.598Z,1005.26
2019-03-09T12:26:12.586Z,1005.26
2019-03-09T12:27:12.551Z,1005.19
2019-03-09T12:28:12.581Z,1005.23
2019-03-09T12:29:12.567Z,1005.20
2019-03-09T12:30:12.553Z,1005.19
2019-03-09T12:31:21.184Z,1005.23